Stations météo

Publicité
Lus-La-Croix-Haute, France (7587): Température de l'air & dewpoint: 01.07.2020 15:00:00 - 07.07.2020 15:00:00 (CEST)Lus-La-Croix-Haute, France (7587): Vitesse du vent & gusts: 01.07.2020 15:00:00 - 07.07.2020 15:00:00 (CEST)Lus-La-Croix-Haute, France (7587): Direction du vent: 01.07.2020 15:00:00 - 07.07.2020 15:00:00 (CEST)Lus-La-Croix-Haute, France (7587): Quantités de précipitations: 01.07.2020 15:00:00 - 07.07.2020 15:00:00 (CEST)
Date & Time tt [°C] td [°C] ff [km/h] ff [knt] fx [km/h] fx [knt] dd rr [mm]
07.07.2020 15:00:00 - - - - - - - -
07.07.2020 14:00:00 20,9 8,5 14 8 37 20 NW 0,0
07.07.2020 13:00:00 19,3 8,0 21 12 43 23 NNW 0,0
07.07.2020 12:00:00 17,9 6,7 19 10 44 24 NNW 0,0
07.07.2020 11:00:00 16,5 6,9 16 9 42 23 NNW 0,0
07.07.2020 10:00:00 15,0 6,8 13 7 34 19 NNW 0,0
07.07.2020 09:00:00 13,1 5,0 13 7 39 21 NW 0,0
07.07.2020 08:00:00 10,7 5,0 19 10 47 26 NW 0,0
07.07.2020 07:00:00 9,4 4,4 15 8 35 19 NNW 0,0
07.07.2020 06:00:00 9,8 4,2 16 9 37 20 NNW 0,0
07.07.2020 05:00:00 9,8 4,0 16 8 34 19 N 0,0
07.07.2020 04:00:00 10,2 3,7 12 7 35 19 NNW 0,0
07.07.2020 03:00:00 10,6 3,1 8 5 31 17 NNW 0,0
07.07.2020 02:00:00 11,7 2,9 7 4 51 27 N 0,0
07.07.2020 01:00:00 12,9 3,0 15 8 46 25 N 0,0
07.07.2020 00:00:00 13,2 3,8 9 5 63 34 N 0,0
06.07.2020 23:00:00 14,6 5,1 21 12 72 39 N 0,0
06.07.2020 22:00:00 15,0 5,2 17 9 86 46 N 0,0
06.07.2020 21:00:00 16,1 6,0 13 7 56 30 N 0,0
06.07.2020 20:00:00 17,9 7,9 16 9 75 41 N 0,0
06.07.2020 19:00:00 17,9 8,7 26 14 55 30 NNW 0,0
06.07.2020 18:00:00 20,6 10,1 24 13 67 36 NNW 0,0
06.07.2020 17:00:00 21,1 11,4 27 15 67 36 NNW 0,0
06.07.2020 16:00:00 21,9 11,9 23 12 61 33 NNW 0,0
06.07.2020 15:00:00 22,1 12,1 21 12 52 28 NNW 0,0
06.07.2020 14:00:00 22,9 12,8 16 8 50 27 NW 0,0
06.07.2020 13:00:00 21,7 13,1 20 11 46 25 NNW 0,0
06.07.2020 12:00:00 19,6 12,6 16 9 44 24 NNW 0,0
06.07.2020 11:00:00 17,9 12,3 18 10 40 22 NNW 0,0
06.07.2020 10:00:00 17,4 12,3 15 8 41 22 NNW 0,0
06.07.2020 09:00:00 16,6 11,9 16 8 35 19 NNW 0,0
06.07.2020 08:00:00 15,8 11,6 15 8 30 16 NW 0,0
06.07.2020 07:00:00 14,7 9,9 7 4 24 13 N 0,0
06.07.2020 06:00:00 15,5 9,4 7 4 21 11 NW 0,0
06.07.2020 05:00:00 15,6 9,9 6 3 25 14 N 0,0
06.07.2020 04:00:00 16,6 10,9 6 3 26 14 N 0,0
06.07.2020 03:00:00 17,9 11,7 6 3 35 19 N 0,0
06.07.2020 02:00:00 18,6 12,3 14 7 37 20 NNW 0,0
06.07.2020 01:00:00 18,7 13,3 14 7 33 18 NNW 0,0
06.07.2020 00:00:00 19,0 13,6 16 9 34 18 NNW 0,0
05.07.2020 23:00:00 18,9 14,0 8 4 26 14 NNW 0,0
05.07.2020 22:00:00 19,0 13,8 6 3 23 12 NNW 0,0
05.07.2020 21:00:00 20,8 14,0 14 8 32 17 NNW 0,0
05.07.2020 20:00:00 23,3 14,6 15 8 36 20 NNW 0,0
05.07.2020 19:00:00 25,1 14,8 15 8 35 19 NW 0,0
05.07.2020 18:00:00 26,3 14,1 16 8 37 20 NW 0,0
05.07.2020 17:00:00 26,2 12,6 16 8 38 20 NNW 0,0
05.07.2020 16:00:00 26,2 14,0 16 8 41 22 NW 0,0
05.07.2020 15:00:00 25,2 13,1 19 10 42 23 NW 0,0
05.07.2020 14:00:00 23,5 11,9 23 12 43 23 WNW 0,0
05.07.2020 13:00:00 23,6 11,3 15 8 38 20 NNW 0,0
05.07.2020 12:00:00 21,9 12,2 14 7 35 19 NW 0,0
05.07.2020 11:00:00 19,9 10,6 16 8 36 20 NW 0,0
05.07.2020 10:00:00 18,3 10,6 16 9 30 16 NW 0,0
05.07.2020 09:00:00 16,9 8,8 15 8 35 19 NW 0,0
05.07.2020 08:00:00 14,4 8,6 9 5 23 13 NNW 0,0
05.07.2020 07:00:00 12,4 7,7 8 4 21 12 N 0,0
05.07.2020 06:00:00 13,1 7,5 8 4 25 14 N 0,0
05.07.2020 05:00:00 13,4 7,8 13 7 30 16 NNW 0,0
05.07.2020 04:00:00 13,3 7,9 5 3 26 14 NNE 0,0
05.07.2020 03:00:00 13,6 8,2 8 4 27 15 N 0,0
05.07.2020 02:00:00 14,3 8,5 10 6 30 16 N 0,0
05.07.2020 01:00:00 14,7 9,3 12 6 24 13 NNW 0,0
05.07.2020 00:00:00 14,4 10,0 14 8 26 14 NNW 0,0
04.07.2020 23:00:00 15,3 10,3 11 6 23 12 NNW 0,0
04.07.2020 22:00:00 15,6 10,6 8 4 23 12 NNW 0,0
04.07.2020 21:00:00 17,1 10,9 12 6 24 13 NW 0,0
04.07.2020 20:00:00 20,1 11,6 13 7 37 20 NW 0,0
04.07.2020 19:00:00 21,8 12,1 16 9 37 20 NNW 0,0
04.07.2020 18:00:00 22,8 12,4 16 9 39 21 NNW 0,0
04.07.2020 17:00:00 23,4 12,1 16 9 42 23 NNW 0,0
04.07.2020 16:00:00 23,3 11,4 14 7 35 19 NW 0,0
04.07.2020 15:00:00 22,5 10,9 11 6 38 20 NW 0,0
04.07.2020 14:00:00 21,2 11,8 19 10 41 22 NW 0,0
04.07.2020 13:00:00 20,5 11,4 13 7 34 18 NW 0,0
04.07.2020 12:00:00 18,3 9,6 13 7 29 16 NNW 0,0
04.07.2020 11:00:00 16,6 9,0 14 8 35 19 NNW 0,0
04.07.2020 10:00:00 15,5 8,7 14 8 35 19 NNW 0,0
04.07.2020 09:00:00 15,1 8,6 7 4 25 13 NNW 0,0
04.07.2020 08:00:00 12,7 8,0 9 5 23 12 NNW 0,0
04.07.2020 07:00:00 11,3 7,8 5 3 19 10 N 0,0
04.07.2020 06:00:00 11,9 7,4 3 2 21 12 SW 0,0
04.07.2020 05:00:00 11,7 7,2 8 5 31 17 NNW 0,0
04.07.2020 04:00:00 11,7 7,4 13 7 32 17 NNW 0,0
04.07.2020 03:00:00 12,2 7,3 10 6 28 15 NNW 0,0
04.07.2020 02:00:00 13,2 7,4 8 5 31 17 NNW 0,0
04.07.2020 01:00:00 13,0 7,7 8 4 27 15 N 0,0
04.07.2020 00:00:00 13,7 7,9 10 6 34 18 N 0,0
03.07.2020 23:00:00 14,3 7,6 14 7 51 28 N 0,0
03.07.2020 22:00:00 14,3 7,8 8 5 49 26 N 0,0
03.07.2020 21:00:00 14,6 7,4 11 6 45 24 NNW 0,0
03.07.2020 20:00:00 14,6 7,9 8 5 42 23 NNW 0,0
03.07.2020 19:00:00 14,7 8,0 5 3 42 23 NNE 0,0
03.07.2020 18:00:00 14,5 8,0 10 5 39 21 N 0,0
03.07.2020 17:00:00 14,8 8,3 12 7 51 27 NNW 0,0
03.07.2020 16:00:00 14,8 8,1 18 10 65 35 NNW 0,0
03.07.2020 15:00:00 14,6 8,5 17 9 47 25 N 0,0
03.07.2020 14:00:00 14,6 8,5 18 10 55 30 NNW 0,0
03.07.2020 13:00:00 15,6 8,3 23 12 50 27 NNW 0,0
03.07.2020 12:00:00 15,3 7,8 18 10 50 27 NNW 0,0
03.07.2020 11:00:00 16,3 8,5 11 6 35 19 NNW 0,0
03.07.2020 10:00:00 13,4 7,8 10 5 34 18 N 0,0
03.07.2020 09:00:00 12,6 8,1 16 8 30 16 NNW 0,0
03.07.2020 08:00:00 12,2 8,3 14 8 33 18 NNW 0,0
03.07.2020 07:00:00 12,4 8,3 10 5 - - NNW 0,0
03.07.2020 06:00:00 12,5 8,4 10 6 32 18 NNW 0,0
03.07.2020 05:00:00 12,7 8,6 21 12 46 25 NNW 0,0
03.07.2020 04:00:00 13,2 8,9 16 9 46 25 NNW 0,0
03.07.2020 03:00:00 13,5 9,3 17 9 46 25 NNW 0,0
03.07.2020 02:00:00 14,1 8,9 14 7 - - NNW 0,0
03.07.2020 01:00:00 14,4 9,6 15 8 48 26 NNW 0,0
03.07.2020 00:00:00 14,5 10,5 24 13 49 26 NNW 0,0
02.07.2020 23:00:00 15,4 12,3 13 7 29 16 NW 0,0
02.07.2020 22:00:00 16,0 12,4 14 8 41 22 NW 0,0
02.07.2020 21:00:00 18,3 12,1 10 5 39 21 N 0,0
02.07.2020 20:00:00 19,9 14,3 11 6 24 13 NNW 0,0
02.07.2020 19:00:00 21,9 14,5 9 5 28 15 WNW 0,0
02.07.2020 18:00:00 20,7 14,8 21 11 37 20 NW 0,0
02.07.2020 17:00:00 23,2 15,0 9 5 26 14 W 0,0
02.07.2020 16:00:00 20,8 14,9 7 4 44 24 N 0,2
02.07.2020 15:00:00 24,7 15,1 16 9 35 19 WNW 0,0
02.07.2020 14:00:00 25,1 14,8 11 6 25 13 NW 0,0
02.07.2020 13:00:00 24,5 15,1 9 5 21 11 WNW 0,0
02.07.2020 12:00:00 23,4 15,7 10 5 20 11 WNW 0,0
02.07.2020 11:00:00 22,1 14,0 4 2 12 6 NNE 0,0
02.07.2020 10:00:00 19,8 14,8 7 4 13 7 SSE 0,0
02.07.2020 09:00:00 15,6 15,0 4 2 8 5 ESE 0,0
02.07.2020 08:00:00 11,8 11,5 0 0 7 4 N 0,0
02.07.2020 07:00:00 9,3 8,7 2 1 6 4 NNE 0,0
02.07.2020 06:00:00 9,8 9,3 2 1 8 4 N 0,0
02.07.2020 05:00:00 10,0 9,4 2 1 6 3 N 0,2
02.07.2020 04:00:00 10,8 10,2 3 2 6 3 ESE 0,0
02.07.2020 03:00:00 11,4 10,8 0 0 8 4 N 0,0
02.07.2020 02:00:00 12,1 11,3 0 0 9 5 N 0,0
02.07.2020 01:00:00 12,6 11,8 3 2 6 4 SE 0,0
02.07.2020 00:00:00 13,5 12,6 0 0 5 3 N 0,0
01.07.2020 23:00:00 14,4 13,4 2 1 10 6 NE 0,0
01.07.2020 22:00:00 14,5 13,4 3 1 10 6 SE 0,0
01.07.2020 21:00:00 15,0 13,9 8 4 22 12 NNW 2,4
01.07.2020 20:00:00 15,4 13,2 9 5 53 29 NNE 9,0
01.07.2020 19:00:00 22,6 11,3 5 3 28 15 N 0,0
01.07.2020 18:00:00 24,3 10,9 5 3 26 14 WSW 0,0
01.07.2020 17:00:00 26,5 11,0 7 4 28 15 WSW 0,0
01.07.2020 16:00:00 28,2 11,7 10 6 23 12 S 0,0
01.07.2020 15:00:00 28,1 12,8 9 5 27 15 SW 0,0

tt = Température de l'air
td = dewpoint
ff = Vitesse du vent
fx = gusts
dd = Direction du vent
rr = Quantités de précipitations

stations d'obs. à proximité